sensor_id;sensor_type;location;lat;lon;timestamp;P1;durP1;ratioP1;P2;durP2;ratioP2
5953;SDS011;3002;42.642;24.812;2023-05-16T00:01:14;9.47;;;4.30;;
5953;SDS011;3002;42.642;24.812;2023-05-16T00:03:40;10.00;;;4.37;;
5953;SDS011;3002;42.642;24.812;2023-05-16T00:06:07;10.77;;;4.70;;
5953;SDS011;3002;42.642;24.812;2023-05-16T00:08:33;13.90;;;5.30;;
5953;SDS011;3002;42.642;24.812;2023-05-16T00:10:58;8.90;;;4.77;;
5953;SDS011;3002;42.642;24.812;2023-05-16T00:13:24;14.00;;;4.53;;
5953;SDS011;3002;42.642;24.812;2023-05-16T00:15:53;10.80;;;5.40;;
5953;SDS011;3002;42.642;24.812;2023-05-16T00:18:21;9.70;;;5.20;;
5953;SDS011;3002;42.642;24.812;2023-05-16T00:20:47;11.60;;;6.57;;
5953;SDS011;3002;42.642;24.812;2023-05-16T00:23:13;10.00;;;5.17;;
5953;SDS011;3002;42.642;24.812;2023-05-16T00:25:39;10.07;;;5.20;;
5953;SDS011;3002;42.642;24.812;2023-05-16T00:28:05;9.40;;;3.87;;
5953;SDS011;3002;42.642;24.812;2023-05-16T00:30:32;9.57;;;4.47;;
5953;SDS011;3002;42.642;24.812;2023-05-16T00:32:57;10.03;;;4.70;;
5953;SDS011;3002;42.642;24.812;2023-05-16T00:35:23;6.93;;;3.80;;
5953;SDS011;3002;42.642;24.812;2023-05-16T00:37:49;8.63;;;4.70;;
5953;SDS011;3002;42.642;24.812;2023-05-16T00:40:15;11.50;;;5.83;;
5953;SDS011;3002;42.642;24.812;2023-05-16T00:42:41;11.87;;;4.57;;
5953;SDS011;3002;42.642;24.812;2023-05-16T00:45:07;10.97;;;5.30;;
5953;SDS011;3002;42.642;24.812;2023-05-16T00:47:34;13.03;;;5.13;;
5953;SDS011;3002;42.642;24.812;2023-05-16T00:50:00;13.53;;;5.20;;
5953;SDS011;3002;42.642;24.812;2023-05-16T00:52:26;8.63;;;3.97;;
5953;SDS011;3002;42.642;24.812;2023-05-16T00:54:52;12.93;;;4.77;;
5953;SDS011;3002;42.642;24.812;2023-05-16T00:57:18;11.50;;;4.57;;
5953;SDS011;3002;42.642;24.812;2023-05-16T00:59:44;11.27;;;4.40;;
5953;SDS011;3002;42.642;24.812;2023-05-16T01:02:11;10.73;;;3.97;;
5953;SDS011;3002;42.642;24.812;2023-05-16T01:04:37;7.63;;;4.40;;
5953;SDS011;3002;42.642;24.812;2023-05-16T01:07:04;11.17;;;5.33;;
5953;SDS011;3002;42.642;24.812;2023-05-16T01:09:30;8.50;;;4.80;;
5953;SDS011;3002;42.642;24.812;2023-05-16T01:17:34;9.00;;;4.13;;
5953;SDS011;3002;42.642;24.812;2023-05-16T01:20:15;9.03;;;3.90;;
5953;SDS011;3002;42.642;24.812;2023-05-16T01:22:58;7.90;;;3.90;;
5953;SDS011;3002;42.642;24.812;2023-05-16T01:25:36;7.37;;;4.07;;
5953;SDS011;3002;42.642;24.812;2023-05-16T01:28:11;7.67;;;4.17;;
5953;SDS011;3002;42.642;24.812;2023-05-16T01:30:39;8.83;;;4.00;;
5953;SDS011;3002;42.642;24.812;2023-05-16T01:33:08;9.47;;;4.70;;
5953;SDS011;3002;42.642;24.812;2023-05-16T01:35:36;8.67;;;3.80;;
5953;SDS011;3002;42.642;24.812;2023-05-16T01:43:45;9.37;;;4.63;;
5953;SDS011;3002;42.642;24.812;2023-05-16T01:46:14;9.20;;;4.90;;
5953;SDS011;3002;42.642;24.812;2023-05-16T01:51:57;8.83;;;4.60;;
5953;SDS011;3002;42.642;24.812;2023-05-16T01:54:26;7.27;;;4.50;;
5953;SDS011;3002;42.642;24.812;2023-05-16T01:56:55;7.10;;;4.43;;
5953;SDS011;3002;42.642;24.812;2023-05-16T01:59:22;15.57;;;4.10;;
5953;SDS011;3002;42.642;24.812;2023-05-16T02:01:49;7.70;;;4.00;;
5953;SDS011;3002;42.642;24.812;2023-05-16T02:04:17;6.87;;;3.83;;
5953;SDS011;3002;42.642;24.812;2023-05-16T02:06:43;7.43;;;4.40;;
5953;SDS011;3002;42.642;24.812;2023-05-16T02:09:09;9.03;;;3.13;;
5953;SDS011;3002;42.642;24.812;2023-05-16T02:11:34;9.13;;;3.67;;
5953;SDS011;3002;42.642;24.812;2023-05-16T02:14:00;8.93;;;4.17;;
5953;SDS011;3002;42.642;24.812;2023-05-16T02:16:25;9.73;;;4.50;;
5953;SDS011;3002;42.642;24.812;2023-05-16T02:18:51;7.57;;;3.47;;
5953;SDS011;3002;42.642;24.812;2023-05-16T02:21:16;12.43;;;4.53;;
5953;SDS011;3002;42.642;24.812;2023-05-16T02:23:42;10.60;;;4.27;;
5953;SDS011;3002;42.642;24.812;2023-05-16T02:26:08;8.60;;;3.60;;
5953;SDS011;3002;42.642;24.812;2023-05-16T02:28:33;11.00;;;4.77;;
5953;SDS011;3002;42.642;24.812;2023-05-16T02:30:59;13.20;;;5.00;;
5953;SDS011;3002;42.642;24.812;2023-05-16T02:33:25;8.10;;;3.50;;
5953;SDS011;3002;42.642;24.812;2023-05-16T02:35:52;9.10;;;5.43;;
5953;SDS011;3002;42.642;24.812;2023-05-16T02:38:18;8.17;;;3.90;;
5953;SDS011;3002;42.642;24.812;2023-05-16T02:40:45;10.70;;;4.87;;
5953;SDS011;3002;42.642;24.812;2023-05-16T02:43:11;7.30;;;3.90;;
5953;SDS011;3002;42.642;24.812;2023-05-16T02:45:37;8.00;;;4.17;;
5953;SDS011;3002;42.642;24.812;2023-05-16T02:48:02;15.40;;;3.10;;
5953;SDS011;3002;42.642;24.812;2023-05-16T02:50:28;8.20;;;4.33;;
5953;SDS011;3002;42.642;24.812;2023-05-16T02:52:53;8.47;;;4.37;;
5953;SDS011;3002;42.642;24.812;2023-05-16T02:55:19;10.60;;;4.57;;
5953;SDS011;3002;42.642;24.812;2023-05-16T02:57:44;10.50;;;5.03;;
5953;SDS011;3002;42.642;24.812;2023-05-16T03:00:10;7.70;;;4.27;;
5953;SDS011;3002;42.642;24.812;2023-05-16T03:02:36;7.47;;;4.03;;
5953;SDS011;3002;42.642;24.812;2023-05-16T03:05:02;14.40;;;3.83;;
5953;SDS011;3002;42.642;24.812;2023-05-16T03:07:29;10.20;;;4.03;;
5953;SDS011;3002;42.642;24.812;2023-05-16T03:09:54;6.53;;;3.47;;
5953;SDS011;3002;42.642;24.812;2023-05-16T03:12:20;11.83;;;4.47;;
5953;SDS011;3002;42.642;24.812;2023-05-16T03:14:45;11.20;;;4.30;;
5953;SDS011;3002;42.642;24.812;2023-05-16T03:17:11;11.70;;;4.50;;
5953;SDS011;3002;42.642;24.812;2023-05-16T03:19:36;10.37;;;4.60;;
5953;SDS011;3002;42.642;24.812;2023-05-16T03:22:01;6.67;;;3.77;;
5953;SDS011;3002;42.642;24.812;2023-05-16T03:24:28;7.57;;;3.70;;
5953;SDS011;3002;42.642;24.812;2023-05-16T03:26:53;8.93;;;4.40;;
5953;SDS011;3002;42.642;24.812;2023-05-16T03:29:19;9.10;;;4.40;;
5953;SDS011;3002;42.642;24.812;2023-05-16T03:31:44;11.67;;;4.47;;
5953;SDS011;3002;42.642;24.812;2023-05-16T03:34:10;14.40;;;5.50;;
5953;SDS011;3002;42.642;24.812;2023-05-16T03:36:35;10.20;;;4.73;;
5953;SDS011;3002;42.642;24.812;2023-05-16T03:39:03;6.93;;;4.23;;
5953;SDS011;3002;42.642;24.812;2023-05-16T03:41:28;8.70;;;3.47;;
5953;SDS011;3002;42.642;24.812;2023-05-16T03:43:54;9.87;;;3.90;;
5953;SDS011;3002;42.642;24.812;2023-05-16T03:46:19;8.00;;;3.60;;
5953;SDS011;3002;42.642;24.812;2023-05-16T03:48:45;8.50;;;4.07;;
5953;SDS011;3002;42.642;24.812;2023-05-16T03:51:11;7.50;;;3.60;;
5953;SDS011;3002;42.642;24.812;2023-05-16T03:53:36;6.80;;;3.70;;
5953;SDS011;3002;42.642;24.812;2023-05-16T03:56:02;7.47;;;4.00;;
5953;SDS011;3002;42.642;24.812;2023-05-16T03:58:28;9.40;;;4.23;;
5953;SDS011;3002;42.642;24.812;2023-05-16T04:00:53;11.37;;;5.30;;
5953;SDS011;3002;42.642;24.812;2023-05-16T04:03:19;8.67;;;4.13;;
5953;SDS011;3002;42.642;24.812;2023-05-16T04:05:52;13.50;;;3.77;;
5953;SDS011;3002;42.642;24.812;2023-05-16T04:08:17;10.10;;;5.53;;
5953;SDS011;3002;42.642;24.812;2023-05-16T04:10:43;10.67;;;3.57;;
5953;SDS011;3002;42.642;24.812;2023-05-16T04:13:08;13.97;;;4.33;;
5953;SDS011;3002;42.642;24.812;2023-05-16T04:15:34;8.30;;;3.77;;
5953;SDS011;3002;42.642;24.812;2023-05-16T04:17:59;11.07;;;3.87;;
5953;SDS011;3002;42.642;24.812;2023-05-16T04:20:25;7.60;;;3.83;;
5953;SDS011;3002;42.642;24.812;2023-05-16T04:22:50;8.70;;;3.80;;
5953;SDS011;3002;42.642;24.812;2023-05-16T04:25:16;9.60;;;4.30;;
5953;SDS011;3002;42.642;24.812;2023-05-16T04:27:41;13.60;;;4.60;;
5953;SDS011;3002;42.642;24.812;2023-05-16T04:30:07;11.20;;;4.30;;
5953;SDS011;3002;42.642;24.812;2023-05-16T04:32:33;10.10;;;4.33;;
5953;SDS011;3002;42.642;24.812;2023-05-16T04:35:01;11.20;;;5.40;;
5953;SDS011;3002;42.642;24.812;2023-05-16T04:37:26;11.83;;;5.90;;
5953;SDS011;3002;42.642;24.812;2023-05-16T04:39:52;9.77;;;5.30;;
5953;SDS011;3002;42.642;24.812;2023-05-16T04:42:18;24.43;;;6.80;;
5953;SDS011;3002;42.642;24.812;2023-05-16T04:44:44;12.77;;;5.70;;
5953;SDS011;3002;42.642;24.812;2023-05-16T04:47:11;10.17;;;4.50;;
5953;SDS011;3002;42.642;24.812;2023-05-16T04:49:37;13.93;;;6.07;;
5953;SDS011;3002;42.642;24.812;2023-05-16T04:52:03;14.40;;;4.47;;
5953;SDS011;3002;42.642;24.812;2023-05-16T04:54:30;31.23;;;6.27;;
5953;SDS011;3002;42.642;24.812;2023-05-16T04:56:55;21.50;;;6.70;;
5953;SDS011;3002;42.642;24.812;2023-05-16T04:59:21;10.43;;;5.63;;
5953;SDS011;3002;42.642;24.812;2023-05-16T05:01:47;9.33;;;5.60;;
5953;SDS011;3002;42.642;24.812;2023-05-16T05:04:12;13.17;;;7.00;;
5953;SDS011;3002;42.642;24.812;2023-05-16T05:06:38;10.63;;;5.83;;
5953;SDS011;3002;42.642;24.812;2023-05-16T05:09:03;8.00;;;4.80;;
5953;SDS011;3002;42.642;24.812;2023-05-16T05:11:30;12.77;;;5.57;;
5953;SDS011;3002;42.642;24.812;2023-05-16T05:13:55;16.83;;;6.80;;
5953;SDS011;3002;42.642;24.812;2023-05-16T05:16:21;14.17;;;6.93;;
5953;SDS011;3002;42.642;24.812;2023-05-16T05:18:46;15.23;;;6.37;;
5953;SDS011;3002;42.642;24.812;2023-05-16T05:21:12;11.53;;;6.63;;
5953;SDS011;3002;42.642;24.812;2023-05-16T05:23:38;12.90;;;6.20;;
5953;SDS011;3002;42.642;24.812;2023-05-16T05:26:04;9.47;;;5.77;;
5953;SDS011;3002;42.642;24.812;2023-05-16T05:28:30;15.07;;;7.03;;
5953;SDS011;3002;42.642;24.812;2023-05-16T05:30:55;10.73;;;6.03;;
5953;SDS011;3002;42.642;24.812;2023-05-16T05:33:24;9.63;;;5.60;;
5953;SDS011;3002;42.642;24.812;2023-05-16T05:35:51;11.23;;;6.00;;
5953;SDS011;3002;42.642;24.812;2023-05-16T05:38:18;13.93;;;5.07;;
5953;SDS011;3002;42.642;24.812;2023-05-16T05:40:44;10.97;;;6.07;;
5953;SDS011;3002;42.642;24.812;2023-05-16T05:43:09;14.93;;;7.23;;
5953;SDS011;3002;42.642;24.812;2023-05-16T05:45:35;16.00;;;5.97;;
5953;SDS011;3002;42.642;24.812;2023-05-16T05:48:01;16.80;;;6.33;;
5953;SDS011;3002;42.642;24.812;2023-05-16T05:50:27;12.00;;;6.13;;
5953;SDS011;3002;42.642;24.812;2023-05-16T05:52:55;10.70;;;5.40;;
5953;SDS011;3002;42.642;24.812;2023-05-16T05:55:21;10.53;;;6.07;;
5953;SDS011;3002;42.642;24.812;2023-05-16T05:57:46;14.17;;;7.00;;
5953;SDS011;3002;42.642;24.812;2023-05-16T06:00:12;10.30;;;5.70;;
5953;SDS011;3002;42.642;24.812;2023-05-16T06:02:37;12.57;;;5.57;;
5953;SDS011;3002;42.642;24.812;2023-05-16T06:05:03;16.00;;;6.40;;
5953;SDS011;3002;42.642;24.812;2023-05-16T06:07:29;12.07;;;5.53;;
5953;SDS011;3002;42.642;24.812;2023-05-16T06:09:54;14.93;;;6.30;;
5953;SDS011;3002;42.642;24.812;2023-05-16T06:12:19;12.97;;;6.00;;
5953;SDS011;3002;42.642;24.812;2023-05-16T06:14:45;13.10;;;5.53;;
5953;SDS011;3002;42.642;24.812;2023-05-16T06:17:10;21.87;;;5.37;;
5953;SDS011;3002;42.642;24.812;2023-05-16T06:19:36;19.50;;;7.07;;
5953;SDS011;3002;42.642;24.812;2023-05-16T06:22:01;21.43;;;6.23;;
5953;SDS011;3002;42.642;24.812;2023-05-16T06:24:27;11.70;;;5.80;;
5953;SDS011;3002;42.642;24.812;2023-05-16T06:26:53;12.43;;;5.87;;
5953;SDS011;3002;42.642;24.812;2023-05-16T06:29:19;20.97;;;5.87;;
5953;SDS011;3002;42.642;24.812;2023-05-16T06:31:45;16.40;;;6.10;;
5953;SDS011;3002;42.642;24.812;2023-05-16T06:34:11;15.57;;;8.17;;
5953;SDS011;3002;42.642;24.812;2023-05-16T06:36:37;34.60;;;7.37;;
5953;SDS011;3002;42.642;24.812;2023-05-16T06:39:02;11.57;;;5.67;;
5953;SDS011;3002;42.642;24.812;2023-05-16T06:41:29;14.50;;;6.67;;
5953;SDS011;3002;42.642;24.812;2023-05-16T06:43:54;16.30;;;6.40;;
5953;SDS011;3002;42.642;24.812;2023-05-16T06:46:20;16.47;;;7.20;;
5953;SDS011;3002;42.642;24.812;2023-05-16T06:48:46;13.07;;;6.50;;
5953;SDS011;3002;42.642;24.812;2023-05-16T06:51:11;10.57;;;4.73;;
5953;SDS011;3002;42.642;24.812;2023-05-16T06:53:37;11.97;;;5.70;;
5953;SDS011;3002;42.642;24.812;2023-05-16T06:56:02;11.60;;;6.07;;
5953;SDS011;3002;42.642;24.812;2023-05-16T06:58:28;15.50;;;6.77;;
5953;SDS011;3002;42.642;24.812;2023-05-16T07:00:53;14.13;;;6.60;;
5953;SDS011;3002;42.642;24.812;2023-05-16T07:03:19;11.67;;;6.10;;
5953;SDS011;3002;42.642;24.812;2023-05-16T07:05:44;18.53;;;6.23;;
5953;SDS011;3002;42.642;24.812;2023-05-16T07:08:10;14.40;;;6.77;;
5953;SDS011;3002;42.642;24.812;2023-05-16T07:10:36;18.80;;;7.40;;
5953;SDS011;3002;42.642;24.812;2023-05-16T07:13:02;11.50;;;6.17;;
5953;SDS011;3002;42.642;24.812;2023-05-16T07:15:29;12.20;;;6.53;;
5953;SDS011;3002;42.642;24.812;2023-05-16T07:17:54;15.67;;;6.37;;
5953;SDS011;3002;42.642;24.812;2023-05-16T07:20:21;17.73;;;7.53;;
5953;SDS011;3002;42.642;24.812;2023-05-16T07:22:47;12.70;;;6.83;;
5953;SDS011;3002;42.642;24.812;2023-05-16T07:25:12;11.83;;;5.47;;
5953;SDS011;3002;42.642;24.812;2023-05-16T07:27:40;13.43;;;5.60;;
5953;SDS011;3002;42.642;24.812;2023-05-16T07:30:09;16.43;;;7.00;;
5953;SDS011;3002;42.642;24.812;2023-05-16T07:32:36;13.77;;;5.97;;
5953;SDS011;3002;42.642;24.812;2023-05-16T07:35:02;12.13;;;5.50;;
5953;SDS011;3002;42.642;24.812;2023-05-16T07:37:28;16.40;;;6.57;;
5953;SDS011;3002;42.642;24.812;2023-05-16T07:39:54;13.30;;;6.27;;
5953;SDS011;3002;42.642;24.812;2023-05-16T07:42:19;10.90;;;5.60;;
5953;SDS011;3002;42.642;24.812;2023-05-16T07:44:45;13.13;;;6.00;;
5953;SDS011;3002;42.642;24.812;2023-05-16T07:47:11;13.03;;;6.17;;
5953;SDS011;3002;42.642;24.812;2023-05-16T07:49:36;10.40;;;4.80;;
5953;SDS011;3002;42.642;24.812;2023-05-16T07:52:02;16.33;;;5.90;;
5953;SDS011;3002;42.642;24.812;2023-05-16T07:54:27;11.47;;;5.67;;
5953;SDS011;3002;42.642;24.812;2023-05-16T07:56:53;16.20;;;6.60;;
5953;SDS011;3002;42.642;24.812;2023-05-16T07:59:18;35.40;;;6.30;;
5953;SDS011;3002;42.642;24.812;2023-05-16T08:01:44;13.93;;;6.67;;
5953;SDS011;3002;42.642;24.812;2023-05-16T08:04:10;16.73;;;6.47;;
5953;SDS011;3002;42.642;24.812;2023-05-16T08:06:35;16.70;;;6.87;;
5953;SDS011;3002;42.642;24.812;2023-05-16T08:09:01;12.23;;;5.87;;
5953;SDS011;3002;42.642;24.812;2023-05-16T08:11:26;22.00;;;6.40;;
5953;SDS011;3002;42.642;24.812;2023-05-16T08:13:52;13.13;;;5.97;;
5953;SDS011;3002;42.642;24.812;2023-05-16T08:16:18;11.60;;;5.00;;
5953;SDS011;3002;42.642;24.812;2023-05-16T08:18:43;16.13;;;6.03;;
5953;SDS011;3002;42.642;24.812;2023-05-16T08:21:09;13.47;;;5.10;;
5953;SDS011;3002;42.642;24.812;2023-05-16T08:23:34;20.70;;;6.27;;
5953;SDS011;3002;42.642;24.812;2023-05-16T08:26:00;18.60;;;6.20;;
5953;SDS011;3002;42.642;24.812;2023-05-16T08:28:27;14.83;;;5.10;;
5953;SDS011;3002;42.642;24.812;2023-05-16T08:30:53;12.30;;;5.80;;
5953;SDS011;3002;42.642;24.812;2023-05-16T08:33:18;12.13;;;5.20;;
5953;SDS011;3002;42.642;24.812;2023-05-16T08:35:44;14.43;;;5.73;;
5953;SDS011;3002;42.642;24.812;2023-05-16T08:38:10;14.97;;;5.77;;
5953;SDS011;3002;42.642;24.812;2023-05-16T08:40:35;16.90;;;5.77;;
5953;SDS011;3002;42.642;24.812;2023-05-16T08:43:01;12.70;;;4.90;;
5953;SDS011;3002;42.642;24.812;2023-05-16T08:45:27;25.80;;;7.10;;
5953;SDS011;3002;42.642;24.812;2023-05-16T08:47:54;11.50;;;4.40;;
5953;SDS011;3002;42.642;24.812;2023-05-16T08:50:21;16.20;;;5.67;;
5953;SDS011;3002;42.642;24.812;2023-05-16T08:52:46;15.83;;;4.80;;
5953;SDS011;3002;42.642;24.812;2023-05-16T08:55:18;29.60;;;5.30;;
5953;SDS011;3002;42.642;24.812;2023-05-16T08:57:47;15.13;;;5.27;;
5953;SDS011;3002;42.642;24.812;2023-05-16T09:00:14;12.07;;;4.60;;
5953;SDS011;3002;42.642;24.812;2023-05-16T09:02:40;14.57;;;5.13;;
5953;SDS011;3002;42.642;24.812;2023-05-16T09:05:07;20.40;;;5.47;;
5953;SDS011;3002;42.642;24.812;2023-05-16T09:07:34;14.97;;;5.50;;
5953;SDS011;3002;42.642;24.812;2023-05-16T09:10:00;13.13;;;4.83;;
5953;SDS011;3002;42.642;24.812;2023-05-16T09:12:26;17.40;;;4.90;;
5953;SDS011;3002;42.642;24.812;2023-05-16T09:14:51;15.57;;;5.60;;
5953;SDS011;3002;42.642;24.812;2023-05-16T09:17:17;17.63;;;6.90;;
5953;SDS011;3002;42.642;24.812;2023-05-16T09:19:42;14.20;;;5.20;;
5953;SDS011;3002;42.642;24.812;2023-05-16T09:22:12;15.43;;;4.90;;
5953;SDS011;3002;42.642;24.812;2023-05-16T09:24:38;15.80;;;6.20;;
5953;SDS011;3002;42.642;24.812;2023-05-16T09:27:11;11.73;;;5.03;;
5953;SDS011;3002;42.642;24.812;2023-05-16T09:29:41;21.73;;;5.13;;
5953;SDS011;3002;42.642;24.812;2023-05-16T09:32:08;11.50;;;5.07;;
5953;SDS011;3002;42.642;24.812;2023-05-16T09:37:15;21.10;;;7.00;;
5953;SDS011;3002;42.642;24.812;2023-05-16T09:39:46;15.67;;;6.60;;
5953;SDS011;3002;42.642;24.812;2023-05-16T09:42:15;13.57;;;4.80;;
5953;SDS011;3002;42.642;24.812;2023-05-16T09:44:48;13.63;;;5.23;;
5953;SDS011;3002;42.642;24.812;2023-05-16T09:47:15;14.10;;;5.50;;
5953;SDS011;3002;42.642;24.812;2023-05-16T09:49:45;13.30;;;4.90;;
5953;SDS011;3002;42.642;24.812;2023-05-16T09:52:12;14.03;;;4.93;;
5953;SDS011;3002;42.642;24.812;2023-05-16T09:54:38;14.53;;;5.60;;
5953;SDS011;3002;42.642;24.812;2023-05-16T09:57:04;12.93;;;5.47;;
5953;SDS011;3002;42.642;24.812;2023-05-16T09:59:30;12.03;;;4.90;;
5953;SDS011;3002;42.642;24.812;2023-05-16T10:01:59;10.40;;;4.87;;
5953;SDS011;3002;42.642;24.812;2023-05-16T10:04:25;12.10;;;4.50;;
5953;SDS011;3002;42.642;24.812;2023-05-16T10:06:51;15.60;;;5.97;;
5953;SDS011;3002;42.642;24.812;2023-05-16T10:09:22;12.00;;;4.70;;
5953;SDS011;3002;42.642;24.812;2023-05-16T10:11:48;12.40;;;4.97;;
5953;SDS011;3002;42.642;24.812;2023-05-16T10:14:16;14.40;;;5.27;;
5953;SDS011;3002;42.642;24.812;2023-05-16T10:16:43;12.90;;;5.83;;
5953;SDS011;3002;42.642;24.812;2023-05-16T10:19:16;13.80;;;4.70;;
5953;SDS011;3002;42.642;24.812;2023-05-16T10:21:45;13.47;;;4.60;;
5953;SDS011;3002;42.642;24.812;2023-05-16T10:24:16;19.90;;;6.80;;
5953;SDS011;3002;42.642;24.812;2023-05-16T10:26:51;14.37;;;6.13;;
5953;SDS011;3002;42.642;24.812;2023-05-16T10:29:17;16.33;;;6.87;;
5953;SDS011;3002;42.642;24.812;2023-05-16T10:31:45;10.97;;;5.00;;
5953;SDS011;3002;42.642;24.812;2023-05-16T10:34:11;14.70;;;5.30;;
5953;SDS011;3002;42.642;24.812;2023-05-16T10:36:38;14.63;;;5.40;;
5953;SDS011;3002;42.642;24.812;2023-05-16T10:39:04;13.50;;;5.40;;
5953;SDS011;3002;42.642;24.812;2023-05-16T10:41:31;14.70;;;5.00;;
5953;SDS011;3002;42.642;24.812;2023-05-16T10:43:58;17.83;;;5.00;;
5953;SDS011;3002;42.642;24.812;2023-05-16T10:46:23;19.17;;;6.03;;
5953;SDS011;3002;42.642;24.812;2023-05-16T10:48:51;11.87;;;3.90;;
5953;SDS011;3002;42.642;24.812;2023-05-16T10:53:53;12.97;;;5.40;;
5953;SDS011;3002;42.642;24.812;2023-05-16T10:56:25;12.43;;;4.87;;
5953;SDS011;3002;42.642;24.812;2023-05-16T10:58:52;14.43;;;5.37;;
5953;SDS011;3002;42.642;24.812;2023-05-16T11:11:53;13.40;;;5.20;;
5953;SDS011;3002;42.642;24.812;2023-05-16T11:14:22;16.60;;;6.20;;
5953;SDS011;3002;42.642;24.812;2023-05-16T11:16:59;12.17;;;4.60;;
5953;SDS011;3002;42.642;24.812;2023-05-16T11:22:21;12.13;;;3.50;;
5953;SDS011;3002;42.642;24.812;2023-05-16T11:27:13;13.57;;;5.20;;
5953;SDS011;3002;42.642;24.812;2023-05-16T11:29:45;13.90;;;4.10;;
5953;SDS011;3002;42.642;24.812;2023-05-16T11:32:10;11.67;;;4.37;;
5953;SDS011;3002;42.642;24.812;2023-05-16T11:34:36;18.43;;;4.30;;
5953;SDS011;3002;42.642;24.812;2023-05-16T11:37:03;12.07;;;4.53;;
5953;SDS011;3002;42.642;24.812;2023-05-16T11:39:30;13.10;;;4.13;;
5953;SDS011;3002;42.642;24.812;2023-05-16T11:41:56;8.53;;;2.27;;
5953;SDS011;3002;42.642;24.812;2023-05-16T11:44:22;13.77;;;2.67;;
5953;SDS011;3002;42.642;24.812;2023-05-16T11:46:47;8.63;;;3.37;;
5953;SDS011;3002;42.642;24.812;2023-05-16T11:49:13;16.93;;;2.67;;
5953;SDS011;3002;42.642;24.812;2023-05-16T11:51:39;8.33;;;2.20;;
5953;SDS011;3002;42.642;24.812;2023-05-16T11:54:05;9.50;;;2.60;;
5953;SDS011;3002;42.642;24.812;2023-05-16T11:56:36;9.10;;;2.20;;
5953;SDS011;3002;42.642;24.812;2023-05-16T11:59:02;6.27;;;1.80;;
5953;SDS011;3002;42.642;24.812;2023-05-16T12:01:34;12.63;;;2.13;;
5953;SDS011;3002;42.642;24.812;2023-05-16T12:04:02;6.50;;;2.00;;
5953;SDS011;3002;42.642;24.812;2023-05-16T12:06:36;12.17;;;2.33;;
5953;SDS011;3002;42.642;24.812;2023-05-16T12:09:12;5.10;;;1.40;;
5953;SDS011;3002;42.642;24.812;2023-05-16T12:11:42;8.00;;;2.00;;
5953;SDS011;3002;42.642;24.812;2023-05-16T12:14:12;6.73;;;2.43;;
5953;SDS011;3002;42.642;24.812;2023-05-16T12:16:38;16.10;;;3.67;;
5953;SDS011;3002;42.642;24.812;2023-05-16T12:19:08;6.73;;;2.20;;
5953;SDS011;3002;42.642;24.812;2023-05-16T12:21:34;17.00;;;2.33;;
5953;SDS011;3002;42.642;24.812;2023-05-16T12:24:00;8.90;;;2.57;;
5953;SDS011;3002;42.642;24.812;2023-05-16T12:26:27;13.80;;;3.23;;
5953;SDS011;3002;42.642;24.812;2023-05-16T12:29:01;9.83;;;2.47;;
5953;SDS011;3002;42.642;24.812;2023-05-16T12:31:29;14.83;;;3.33;;
5953;SDS011;3002;42.642;24.812;2023-05-16T12:33:56;10.77;;;4.03;;
5953;SDS011;3002;42.642;24.812;2023-05-16T12:36:22;13.50;;;4.70;;
5953;SDS011;3002;42.642;24.812;2023-05-16T12:38:49;12.17;;;4.93;;
5953;SDS011;3002;42.642;24.812;2023-05-16T12:41:21;10.77;;;4.30;;
5953;SDS011;3002;42.642;24.812;2023-05-16T12:43:48;16.43;;;5.73;;
5953;SDS011;3002;42.642;24.812;2023-05-16T12:46:14;15.90;;;5.40;;
5953;SDS011;3002;42.642;24.812;2023-05-16T12:48:40;18.13;;;5.07;;
5953;SDS011;3002;42.642;24.812;2023-05-16T12:51:14;21.63;;;6.27;;
5953;SDS011;3002;42.642;24.812;2023-05-16T12:53:45;16.73;;;7.07;;
5953;SDS011;3002;42.642;24.812;2023-05-16T12:56:25;16.27;;;6.73;;
5953;SDS011;3002;42.642;24.812;2023-05-16T12:58:50;12.53;;;6.03;;
5953;SDS011;3002;42.642;24.812;2023-05-16T13:01:16;13.73;;;4.70;;
5953;SDS011;3002;42.642;24.812;2023-05-16T13:03:41;12.77;;;5.20;;
5953;SDS011;3002;42.642;24.812;2023-05-16T13:06:07;16.10;;;6.80;;
5953;SDS011;3002;42.642;24.812;2023-05-16T13:08:32;12.63;;;6.40;;
5953;SDS011;3002;42.642;24.812;2023-05-16T13:10:59;12.67;;;5.93;;
5953;SDS011;3002;42.642;24.812;2023-05-16T13:13:24;11.70;;;5.67;;
5953;SDS011;3002;42.642;24.812;2023-05-16T13:15:50;20.70;;;7.37;;
5953;SDS011;3002;42.642;24.812;2023-05-16T13:18:15;16.57;;;7.47;;
5953;SDS011;3002;42.642;24.812;2023-05-16T13:20:41;17.40;;;6.93;;
5953;SDS011;3002;42.642;24.812;2023-05-16T13:23:07;17.83;;;6.60;;
5953;SDS011;3002;42.642;24.812;2023-05-16T13:25:33;17.43;;;6.60;;
5953;SDS011;3002;42.642;24.812;2023-05-16T13:27:58;15.20;;;6.60;;
5953;SDS011;3002;42.642;24.812;2023-05-16T13:30:24;17.87;;;6.57;;
5953;SDS011;3002;42.642;24.812;2023-05-16T13:32:50;15.13;;;6.10;;
5953;SDS011;3002;42.642;24.812;2023-05-16T13:35:16;13.53;;;7.00;;
5953;SDS011;3002;42.642;24.812;2023-05-16T13:37:42;13.60;;;6.80;;
5953;SDS011;3002;42.642;24.812;2023-05-16T13:40:08;12.43;;;6.50;;
5953;SDS011;3002;42.642;24.812;2023-05-16T13:42:34;17.57;;;6.57;;
5953;SDS011;3002;42.642;24.812;2023-05-16T13:45:01;19.03;;;7.00;;
5953;SDS011;3002;42.642;24.812;2023-05-16T13:47:30;15.90;;;6.60;;
5953;SDS011;3002;42.642;24.812;2023-05-16T13:49:57;24.63;;;7.97;;
5953;SDS011;3002;42.642;24.812;2023-05-16T13:52:23;18.23;;;6.87;;
5953;SDS011;3002;42.642;24.812;2023-05-16T13:54:48;13.47;;;6.83;;
5953;SDS011;3002;42.642;24.812;2023-05-16T14:00:36;13.80;;;6.20;;
5953;SDS011;3002;42.642;24.812;2023-05-16T14:03:01;22.57;;;7.50;;
5953;SDS011;3002;42.642;24.812;2023-05-16T14:05:26;21.90;;;6.70;;
5953;SDS011;3002;42.642;24.812;2023-05-16T14:07:52;20.27;;;7.03;;
5953;SDS011;3002;42.642;24.812;2023-05-16T14:10:18;14.80;;;5.83;;
5953;SDS011;3002;42.642;24.812;2023-05-16T14:12:43;14.33;;;6.50;;
5953;SDS011;3002;42.642;24.812;2023-05-16T14:15:09;21.20;;;7.90;;
5953;SDS011;3002;42.642;24.812;2023-05-16T14:17:35;17.33;;;6.03;;
5953;SDS011;3002;42.642;24.812;2023-05-16T14:20:03;16.03;;;6.70;;
5953;SDS011;3002;42.642;24.812;2023-05-16T14:22:33;14.10;;;5.43;;
5953;SDS011;3002;42.642;24.812;2023-05-16T14:24:59;20.47;;;5.70;;
5953;SDS011;3002;42.642;24.812;2023-05-16T14:27:24;19.20;;;5.10;;
5953;SDS011;3002;42.642;24.812;2023-05-16T14:29:49;14.10;;;5.17;;
5953;SDS011;3002;42.642;24.812;2023-05-16T14:32:16;12.67;;;5.13;;
5953;SDS011;3002;42.642;24.812;2023-05-16T14:34:41;17.80;;;5.83;;
5953;SDS011;3002;42.642;24.812;2023-05-16T14:37:07;12.20;;;5.43;;
5953;SDS011;3002;42.642;24.812;2023-05-16T14:39:34;14.77;;;4.90;;
5953;SDS011;3002;42.642;24.812;2023-05-16T14:42:00;15.83;;;4.90;;
5953;SDS011;3002;42.642;24.812;2023-05-16T14:44:25;12.13;;;5.50;;
5953;SDS011;3002;42.642;24.812;2023-05-16T14:46:51;14.87;;;6.23;;
5953;SDS011;3002;42.642;24.812;2023-05-16T14:49:16;13.00;;;5.57;;
5953;SDS011;3002;42.642;24.812;2023-05-16T14:51:42;8.87;;;3.73;;
5953;SDS011;3002;42.642;24.812;2023-05-16T14:54:13;11.70;;;4.87;;
5953;SDS011;3002;42.642;24.812;2023-05-16T14:56:40;22.83;;;5.50;;
5953;SDS011;3002;42.642;24.812;2023-05-16T14:59:05;10.67;;;4.50;;
5953;SDS011;3002;42.642;24.812;2023-05-16T15:01:31;12.53;;;5.07;;
5953;SDS011;3002;42.642;24.812;2023-05-16T15:03:56;14.97;;;6.00;;
5953;SDS011;3002;42.642;24.812;2023-05-16T15:06:22;13.33;;;4.90;;
5953;SDS011;3002;42.642;24.812;2023-05-16T15:08:48;12.10;;;5.40;;
5953;SDS011;3002;42.642;24.812;2023-05-16T15:11:13;15.30;;;5.00;;
5953;SDS011;3002;42.642;24.812;2023-05-16T15:13:39;18.20;;;6.00;;
5953;SDS011;3002;42.642;24.812;2023-05-16T15:16:05;24.43;;;5.47;;
5953;SDS011;3002;42.642;24.812;2023-05-16T15:18:31;17.07;;;7.23;;
5953;SDS011;3002;42.642;24.812;2023-05-16T15:20:57;16.97;;;6.13;;
5953;SDS011;3002;42.642;24.812;2023-05-16T15:23:22;23.20;;;6.83;;
5953;SDS011;3002;42.642;24.812;2023-05-16T15:25:48;26.53;;;10.20;;